Time;durP1;ratioP1;P1;durP2;ratioP2;P2;SDS_P1;SDS_P2;PMS_P1;PMS_P2;Temp;Humidity;BMP_temperature;BMP_pressure;BME280_temperature;BME280_humidity;BME280_pressure;Samples;Min_cycle;Max_cycle;Signal;HPM_P1;HPM_P2
2024/01/01 00:01:03;;;;;;;;;;;;;;;2.96;100.00;95712.03;5063978;28;19999;-72
2024/01/01 00:03:28;;;;;;;;;;;;;;;2.92;100.00;95730.69;5063567;28;20231;-72
2024/01/01 00:05:54;;;;;;;;;;;;;;;2.90;100.00;95722.31;5064118;28;19947;-71
2024/01/01 00:08:20;;;;;;;;;;;;;;;2.87;100.00;95717.53;5063682;28;19962;-72
2024/01/01 00:10:47;;;;;;;;;;;;;;;2.82;100.00;95731.84;5063782;28;19957;-72
2024/01/01 00:13:12;;;;;;;;;;;;;;;2.82;100.00;95720.69;5063836;28;20106;-78
2024/01/01 00:15:38;;;;;;;;;;;;;;;2.84;100.00;95714.31;5063983;28;19995;-70
2024/01/01 00:18:04;;;;;;;;;;;;;;;2.85;100.00;95713.31;5063716;28;19963;-70
2024/01/01 00:20:30;;;;;;;;;;;;;;;2.85;100.00;95707.34;5063817;28;19970;-70
2024/01/01 00:22:56;;;;;;;;;;;;;;;2.89;100.00;95715.56;5063903;28;19961;-70
2024/01/01 00:25:22;;;;;;;;;;;;;;;2.91;100.00;95705.81;5063211;28;19951;-69
2024/01/01 00:27:47;;;;;;;;;;;;;;;2.93;100.00;95706.41;5063839;28;20276;-71
2024/01/01 00:30:13;;;;;;;;;;;;;;;2.95;100.00;95702.66;5063985;28;19955;-69
2024/01/01 00:32:39;;;;;;;;;;;;;;;2.96;100.00;95691.31;5046213;28;19940;-68
2024/01/01 00:35:05;;;;;;;;;;;;;;;2.99;100.00;95696.09;5063617;28;19960;-71
2024/01/01 00:37:31;;;;;;;;;;;;;;;3.01;100.00;95691.53;5063725;28;19964;-71
2024/01/01 00:39:57;;;;;;;;;;;;;;;3.02;100.00;95681.97;5063771;28;19954;-71
2024/01/01 00:42:24;;;;;;;;;;;;;;;3.01;100.00;95691.53;5065413;28;19960;-71
2024/01/01 00:44:50;;;;;;;;;;;;;;;3.02;100.00;95681.97;5067057;28;20140;-71
2024/01/01 00:47:16;;;;;;;;;;;;;;;3.00;100.00;95692.53;5066992;28;19957;-71
2024/01/01 00:49:42;;;;;;;;;;;;;;;2.99;100.00;95701.28;5067094;28;19962;-80
2024/01/01 00:52:07;;;;;;;;;;;;;;;2.98;100.00;95698.88;5067172;28;19949;-73
2024/01/01 00:54:33;;;;;;;;;;;;;;;2.98;100.00;95706.66;5067228;28;19959;-70
2024/01/01 00:56:59;;;;;;;;;;;;;;;2.97;100.00;95708.44;5067079;28;19955;-70
2024/01/01 00:59:25;;;;;;;;;;;;;;;2.96;100.00;95711.22;5067027;28;20001;-69
2024/01/01 01:01:51;;;;;;;;;;;;;;;2.96;100.00;95719.81;5066393;28;19960;-70
2024/01/01 01:04:17;;;;;;;;;;;;;;;2.95;100.00;95723.38;5066527;28;19957;-69
2024/01/01 01:06:45;;;;;;;;;;;;;;;2.95;100.00;95722.56;5066926;28;19980;-69
2024/01/01 01:09:11;;;;;;;;;;;;;;;2.96;100.00;95719.81;5066451;28;19974;-68
2024/01/01 01:11:38;;;;;;;;;;;;;;;2.94;100.00;95726.97;5066604;28;19951;-74
2024/01/01 01:14:04;;;;;;;;;;;;;;;2.95;100.00;95725.16;5066811;28;19961;-74
2024/01/01 01:16:29;;;;;;;;;;;;;;;2.97;100.00;95741.31;5066488;28;19997;-76
2024/01/01 01:18:55;;;;;;;;;;;;;;;2.99;100.00;95742.72;5066560;28;20263;-75
2024/01/01 01:21:21;;;;;;;;;;;;;;;3.02;100.00;95741.53;5066428;28;19983;-75
2024/01/01 01:23:47;;;;;;;;;;;;;;;3.02;100.00;95732.00;5066555;28;19955;-74
2024/01/01 01:26:13;;;;;;;;;;;;;;;3.00;100.00;95746.09;5066595;28;19960;-71
2024/01/01 01:28:39;;;;;;;;;;;;;;;2.96;100.00;95753.47;5066660;28;19957;-76
2024/01/01 01:31:04;;;;;;;;;;;;;;;2.94;100.00;95744.25;5066466;28;19948;-68
2024/01/01 01:33:30;;;;;;;;;;;;;;;2.91;100.00;95745.44;5065934;28;19998;-68
2024/01/01 01:35:56;;;;;;;;;;;;;;;2.93;100.00;95740.09;5066607;28;19962;-68
2024/01/01 01:38:23;;;;;;;;;;;;;;;2.92;100.00;95746.25;5066520;28;20029;-67
2024/01/01 01:40:49;;;;;;;;;;;;;;;2.92;100.00;95741.88;5066482;28;19958;-68
2024/01/01 01:43:19;;;;;;;;;;;;;;;2.94;100.00;95739.91;5066050;28;19964;-68
2024/01/01 01:45:45;;;;;;;;;;;;;;;3.00;100.00;95739.16;5065973;28;19950;-72
2024/01/01 01:48:11;;;;;;;;;;;;;;;3.05;100.00;95748.94;5066186;28;19979;-74
2024/01/01 01:50:37;;;;;;;;;;;;;;;3.07;100.00;95748.75;5065947;28;20235;-73
2024/01/01 01:53:03;;;;;;;;;;;;;;;3.07;100.00;95746.97;5065189;28;19966;-73
2024/01/01 01:55:29;;;;;;;;;;;;;;;3.05;100.00;95744.56;5065789;28;19962;-74
2024/01/01 01:57:55;;;;;;;;;;;;;;;3.03;100.00;95740.56;5065968;28;19969;-73
2024/01/01 02:00:21;;;;;;;;;;;;;;;3.05;100.00;95738.59;5065339;28;19946;-74
2024/01/01 02:02:47;;;;;;;;;;;;;;;3.03;100.00;95743.94;5065726;28;19957;-77
2024/01/01 02:05:12;;;;;;;;;;;;;;;2.98;100.00;95741.13;5065482;28;19952;-78
2024/01/01 02:07:39;;;;;;;;;;;;;;;2.97;100.00;95742.09;5065378;28;19956;-74
2024/01/01 02:10:06;;;;;;;;;;;;;;;2.96;100.00;95740.53;5065422;28;20154;-74
2024/01/01 02:12:31;;;;;;;;;;;;;;;2.97;100.00;95726.56;5065397;28;19965;-75
2024/01/01 02:14:57;;;;;;;;;;;;;;;2.99;100.00;95723.81;5065407;28;20163;-74
2024/01/01 02:17:23;;;;;;;;;;;;;;;3.02;100.00;95719.06;5065691;28;20003;-74
2024/01/01 02:19:51;;;;;;;;;;;;;;;3.05;100.00;95713.47;5065194;28;19962;-75
2024/01/01 02:22:16;;;;;;;;;;;;;;;3.06;100.00;95714.28;5065396;28;19966;-71
2024/01/01 02:24:42;;;;;;;;;;;;;;;3.05;100.00;95718.66;5065484;28;19959;-78
2024/01/01 02:27:08;;;;;;;;;;;;;;;3.06;100.00;95716.88;5065470;28;19958;-78
2024/01/01 02:29:34;;;;;;;;;;;;;;;3.04;100.00;95717.06;5065276;28;19987;-78
2024/01/01 02:32:00;;;;;;;;;;;;;;;3.07;100.00;95713.31;5065601;28;20034;-78
2024/01/01 02:34:27;;;;;;;;;;;;;;;3.07;100.00;95712.47;5065494;28;19959;-77
2024/01/01 02:36:54;;;;;;;;;;;;;;;3.04;100.00;95709.31;5065677;28;19962;-78
2024/01/01 02:39:20;;;;;;;;;;;;;;;3.04;100.00;95718.84;5064960;28;19952;-78
2024/01/01 02:41:46;;;;;;;;;;;;;;;3.03;100.00;95718.06;5064813;28;19967;-78
2024/01/01 02:44:12;;;;;;;;;;;;;;;3.01;100.00;95714.84;5065075;28;19952;-75
2024/01/01 02:46:38;;;;;;;;;;;;;;;3.00;100.00;95712.44;5064858;28;19955;-74
2024/01/01 02:49:03;;;;;;;;;;;;;;;2.95;100.00;95718.19;5064852;28;19960;-74
2024/01/01 02:51:29;;;;;;;;;;;;;;;2.90;100.00;95714.53;5064877;28;19955;-75
2024/01/01 02:53:56;;;;;;;;;;;;;;;2.81;100.00;95717.31;5064993;28;19967;-74
2024/01/01 02:56:25;;;;;;;;;;;;;;;2.77;100.00;95721.25;5064867;28;19951;-74
2024/01/01 02:58:51;;;;;;;;;;;;;;;2.75;100.00;95725.81;5064805;28;19981;-68
2024/01/01 03:01:18;;;;;;;;;;;;;;;2.73;100.00;95730.38;5064676;28;19975;-73
2024/01/01 03:03:44;;;;;;;;;;;;;;;2.72;100.00;95728.75;5064762;28;20011;-74
2024/01/01 03:06:10;;;;;;;;;;;;;;;2.73;100.00;95732.97;5064656;28;19968;-75
2024/01/01 03:08:37;;;;;;;;;;;;;;;2.72;100.00;95728.75;5064061;28;20006;-74
2024/01/01 03:11:04;;;;;;;;;;;;;;;2.72;100.00;95740.91;5064399;28;19966;-74
2024/01/01 03:13:29;;;;;;;;;;;;;;;2.72;100.00;95753.84;5064447;28;19953;-74
2024/01/01 03:15:55;;;;;;;;;;;;;;;2.73;100.00;95747.66;5064441;28;20003;-74
2024/01/01 03:18:21;;;;;;;;;;;;;;;2.76;100.00;95758.47;5064426;28;19955;-77
2024/01/01 03:20:47;;;;;;;;;;;;;;;2.80;100.00;95745.97;5064483;28;19960;-78
2024/01/01 03:23:13;;;;;;;;;;;;;;;2.84;100.00;95750.56;5064476;28;19956;-79
2024/01/01 03:25:39;;;;;;;;;;;;;;;2.89;100.00;95750.00;5064554;28;19968;-78
2024/01/01 03:28:04;;;;;;;;;;;;;;;2.93;100.00;95753.81;5065136;28;19964;-77
2024/01/01 03:30:30;;;;;;;;;;;;;;;2.97;100.00;95752.47;5064107;28;19945;-79
2024/01/01 03:32:56;;;;;;;;;;;;;;;3.00;100.00;95753.88;5064618;28;20132;-78
2024/01/01 03:35:22;;;;;;;;;;;;;;;3.03;100.00;95756.91;5064320;28;19957;-78
2024/01/01 03:37:48;;;;;;;;;;;;;;;3.05;100.00;95761.91;5064035;28;19960;-73
2024/01/01 03:40:14;;;;;;;;;;;;;;;3.06;100.00;95758.31;5063922;28;19959;-71
2024/01/01 03:42:40;;;;;;;;;;;;;;;3.08;100.00;95755.53;5063322;28;20047;-71
2024/01/01 03:45:06;;;;;;;;;;;;;;;3.11;100.00;95755.97;5064248;28;19979;-71
2024/01/01 03:47:32;;;;;;;;;;;;;;;3.14;100.00;95771.13;5063828;28;20250;-71
2024/01/01 03:49:58;;;;;;;;;;;;;;;3.19;100.00;95762.78;5064087;28;19950;-71
2024/01/01 03:52:24;;;;;;;;;;;;;;;3.23;100.00;95761.44;5064120;28;19957;-71
2024/01/01 03:54:50;;;;;;;;;;;;;;;3.27;100.00;95757.47;5064165;28;19955;-73
2024/01/01 03:57:16;;;;;;;;;;;;;;;3.27;100.00;95765.25;5064105;28;19955;-70
2024/01/01 03:59:42;;;;;;;;;;;;;;;3.28;100.00;95761.69;5063592;28;20126;-70
2024/01/01 04:02:10;;;;;;;;;;;;;;;3.29;100.00;95770.25;5063602;28;20010;-69
2024/01/01 04:04:36;;;;;;;;;;;;;;;3.27;100.00;95767.84;5063694;28;19960;-70
2024/01/01 04:07:02;;;;;;;;;;;;;;;3.27;100.00;95769.63;5064057;28;19960;-69
2024/01/01 04:09:28;;;;;;;;;;;;;;;3.27;100.00;95773.03;5063693;28;19959;-69
2024/01/01 04:11:54;;;;;;;;;;;;;;;3.25;100.00;95777.59;5064030;28;19968;-68
2024/01/01 04:14:20;;;;;;;;;;;;;;;3.22;100.00;95775.38;5063758;28;19957;-76
2024/01/01 04:16:46;;;;;;;;;;;;;;;3.22;100.00;95770.19;5064219;28;19956;-71
2024/01/01 04:19:11;;;;;;;;;;;;;;;3.21;100.00;95760.81;5067730;28;19954;-71
2024/01/01 04:21:38;;;;;;;;;;;;;;;3.20;100.00;95762.59;5067665;28;19972;-72
2024/01/01 04:24:05;;;;;;;;;;;;;;;3.23;100.00;95759.66;5067799;28;19957;-71
2024/01/01 04:26:31;;;;;;;;;;;;;;;3.23;100.00;95749.28;5067170;28;19976;-71
2024/01/01 04:28:57;;;;;;;;;;;;;;;3.21;100.00;95758.22;5067199;28;20225;-71
2024/01/01 04:31:22;;;;;;;;;;;;;;;3.18;100.00;95746.44;5067156;28;19955;-78
2024/01/01 04:33:48;;;;;;;;;;;;;;;3.18;100.00;95756.81;5067252;28;20244;-77
2024/01/01 04:36:14;;;;;;;;;;;;;;;3.17;100.00;95760.41;5067205;28;20261;-78
2024/01/01 04:38:40;;;;;;;;;;;;;;;3.14;100.00;95760.78;5067237;28;19962;-77
2024/01/01 04:41:08;;;;;;;;;;;;;;;3.11;100.00;95765.50;5067410;28;20228;-78
2024/01/01 04:43:35;;;;;;;;;;;;;;;3.09;100.00;95767.50;5067171;28;19958;-77
2024/01/01 04:46:01;;;;;;;;;;;;;;;3.09;100.00;95765.72;5067488;28;19963;-77
2024/01/01 04:48:27;;;;;;;;;;;;;;;3.10;100.00;95776.88;5067199;28;19960;-78
2024/01/01 04:50:53;;;;;;;;;;;;;;;3.12;100.00;95778.28;5067299;28;19960;-77
2024/01/01 04:53:18;;;;;;;;;;;;;;;3.15;100.00;95782.28;5067302;28;19997;-78
2024/01/01 04:55:44;;;;;;;;;;;;;;;3.15;100.00;95777.94;5066654;28;19960;-77
2024/01/01 04:58:10;;;;;;;;;;;;;;;3.18;100.00;95780.13;5066624;28;19993;-77
2024/01/01 05:00:36;;;;;;;;;;;;;;;3.19;100.00;95781.75;5067322;28;19958;-77
2024/01/01 05:03:02;;;;;;;;;;;;;;;3.17;100.00;95781.13;5066878;28;20026;-77
2024/01/01 05:05:28;;;;;;;;;;;;;;;3.15;100.00;95784.88;5067177;28;20244;-77
2024/01/01 05:07:54;;;;;;;;;;;;;;;3.11;100.00;95786.25;5066681;28;19960;-72
2024/01/01 05:10:20;;;;;;;;;;;;;;;3.08;100.00;95795.19;5066790;28;19967;-69
2024/01/01 05:12:45;;;;;;;;;;;;;;;3.05;100.00;95795.56;5066677;28;19959;-69
2024/01/01 05:15:11;;;;;;;;;;;;;;;3.03;100.00;95810.50;5066661;28;19966;-69
2024/01/01 05:17:37;;;;;;;;;;;;;;;3.02;100.00;95809.72;5066860;28;19963;-69
2024/01/01 05:20:03;;;;;;;;;;;;;;;3.02;100.00;95814.88;5066651;28;19966;-69
2024/01/01 05:22:30;;;;;;;;;;;;;;;3.04;100.00;95822.44;5066611;28;19977;-69
2024/01/01 05:24:56;;;;;;;;;;;;;;;3.03;100.00;95824.25;5066688;28;20242;-69
2024/01/01 05:27:21;;;;;;;;;;;;;;;3.02;100.00;95829.59;5066421;28;20130;-73
2024/01/01 05:29:48;;;;;;;;;;;;;;;3.00;100.00;95821.22;5066593;28;19947;-78
2024/01/01 05:32:14;;;;;;;;;;;;;;;3.01;100.00;95830.59;5066079;28;20244;-78
2024/01/01 05:34:41;;;;;;;;;;;;;;;3.01;100.00;95826.22;5066742;28;19952;-78
2024/01/01 05:37:07;;;;;;;;;;;;;;;3.00;100.00;95822.03;5066216;28;19968;-78
2024/01/01 05:39:32;;;;;;;;;;;;;;;3.01;100.00;95825.44;5066241;28;19956;-78
2024/01/01 05:41:58;;;;;;;;;;;;;;;3.03;100.00;95833.81;5066348;28;20015;-78
2024/01/01 05:44:24;;;;;;;;;;;;;;;3.04;100.00;95841.41;5066411;28;19955;-78
2024/01/01 05:46:50;;;;;;;;;;;;;;;3.07;100.00;95839.41;5066884;28;19956;-73
2024/01/01 05:49:17;;;;;;;;;;;;;;;3.05;100.00;95830.03;5066159;28;19952;-77
2024/01/01 05:51:46;;;;;;;;;;;;;;;3.05;100.00;95827.47;5066096;28;19966;-77
2024/01/01 05:54:11;;;;;;;;;;;;;;;3.04;100.00;95822.44;5066125;28;19955;-78
2024/01/01 05:56:37;;;;;;;;;;;;;;;3.02;100.00;95821.84;5065487;28;19959;-78
2024/01/01 05:59:03;;;;;;;;;;;;;;;3.01;100.00;95817.66;5066271;28;20201;-77
2024/01/01 06:01:29;;;;;;;;;;;;;;;2.98;100.00;95818.84;5065483;28;19969;-77
2024/01/01 06:03:55;;;;;;;;;;;;;;;2.94;100.00;95837.50;5065423;28;19952;-77
2024/01/01 06:06:23;;;;;;;;;;;;;;;2.90;100.00;95837.09;5065541;28;19965;-78
2024/01/01 06:08:49;;;;;;;;;;;;;;;2.89;100.00;95838.06;5065455;28;19971;-78
2024/01/01 06:11:14;;;;;;;;;;;;;;;2.89;100.00;95845.03;5065212;28;20162;-78
2024/01/01 06:13:40;;;;;;;;;;;;;;;2.88;100.00;95854.59;5065164;28;19954;-78
2024/01/01 06:16:06;;;;;;;;;;;;;;;2.89;100.00;95853.59;5065477;28;19962;-78
2024/01/01 06:18:32;;;;;;;;;;;;;;;2.90;100.00;95857.81;5065524;28;19953;-79
2024/01/01 06:20:58;;;;;;;;;;;;;;;2.90;100.00;95852.63;5065575;28;20255;-69
2024/01/01 06:23:24;;;;;;;;;;;;;;;2.92;100.00;95860.19;5065027;28;19962;-70
2024/01/01 06:25:51;;;;;;;;;;;;;;;2.93;100.00;95860.00;5065496;28;19964;-74
2024/01/01 06:28:18;;;;;;;;;;;;;;;2.95;100.00;95867.59;5047716;28;20110;-74
2024/01/01 06:30:44;;;;;;;;;;;;;;;2.96;100.00;95871.78;5065310;28;19962;-74
2024/01/01 06:33:10;;;;;;;;;;;;;;;2.99;100.00;95874.81;5064998;28;19955;-73
2024/01/01 06:35:35;;;;;;;;;;;;;;;3.00;100.00;95879.03;5064898;28;20106;-73
2024/01/01 06:38:02;;;;;;;;;;;;;;;3.01;100.00;95882.41;5064923;28;20093;-73
2024/01/01 06:40:28;;;;;;;;;;;;;;;3.02;100.00;95884.00;5064626;28;19956;-67
2024/01/01 06:42:54;;;;;;;;;;;;;;;3.03;100.00;95888.22;5065199;28;20282;-68
2024/01/01 06:45:20;;;;;;;;;;;;;;;3.04;100.00;95880.25;5064917;28;19990;-68
2024/01/01 06:47:47;;;;;;;;;;;;;;;3.02;100.00;95874.47;5065115;28;19957;-67
2024/01/01 06:50:14;;;;;;;;;;;;;;;3.01;100.00;95878.03;5064479;28;19966;-67
2024/01/01 06:52:40;;;;;;;;;;;;;;;3.00;100.00;95868.66;5064954;28;20247;-67
2024/01/01 06:55:06;;;;;;;;;;;;;;;2.97;100.00;95874.19;5064901;28;19955;-69
2024/01/01 06:57:32;;;;;;;;;;;;;;;2.98;100.00;95882.75;5064390;28;19942;-78
2024/01/01 06:59:58;;;;;;;;;;;;;;;2.98;100.00;95885.34;5064502;28;20323;-77
2024/01/01 07:02:27;;;;;;;;;;;;;;;2.95;100.00;95883.94;5064995;28;19983;-74
2024/01/01 07:04:53;;;;;;;;;;;;;;;2.92;100.00;95893.84;5064862;28;19955;-75
2024/01/01 07:07:19;;;;;;;;;;;;;;;2.88;100.00;95895.19;5064715;28;19964;-75
2024/01/01 07:09:44;;;;;;;;;;;;;;;2.86;100.00;95898.00;5064399;28;19959;-74
2024/01/01 07:12:20;;;;;;;;;;;;;;;2.87;100.00;95901.38;5064800;28;19956;-74
2024/01/01 07:14:47;;;;;;;;;;;;;;;2.87;100.00;95906.56;5064520;28;19954;-75
2024/01/01 07:17:14;;;;;;;;;;;;;;;2.89;100.00;95914.94;5063895;28;20199;-72
2024/01/01 07:19:40;;;;;;;;;;;;;;;2.89;100.00;95905.38;5064046;28;19956;-68
2024/01/01 07:22:06;;;;;;;;;;;;;;;2.91;100.00;95918.97;5064394;28;19967;-68
2024/01/01 07:24:32;;;;;;;;;;;;;;;2.91;100.00;95913.78;5064026;28;19943;-67
2024/01/01 07:26:58;;;;;;;;;;;;;;;2.91;100.00;95920.75;5064587;28;19951;-68
2024/01/01 07:29:23;;;;;;;;;;;;;;;2.91;100.00;95924.13;5064680;28;19958;-67
2024/01/01 07:31:49;;;;;;;;;;;;;;;2.91;100.00;95928.53;5064431;28;19965;-68
2024/01/01 07:34:18;;;;;;;;;;;;;;;2.91;100.00;95924.13;5064081;28;19957;-69
2024/01/01 07:36:44;;;;;;;;;;;;;;;2.90;100.00;95917.38;5064096;28;19954;-73
2024/01/01 07:39:10;;;;;;;;;;;;;;;2.91;100.00;95921.53;5064437;28;19956;-78
2024/01/01 07:41:36;;;;;;;;;;;;;;;2.90;100.00;95926.91;5064039;28;19962;-78
2024/01/01 07:44:02;;;;;;;;;;;;;;;2.90;100.00;95932.09;5064225;28;19962;-77
2024/01/01 07:46:28;;;;;;;;;;;;;;;2.91;100.00;95937.09;5064151;28;19962;-78
2024/01/01 07:48:55;;;;;;;;;;;;;;;2.92;100.00;95937.88;5064238;28;19950;-77
2024/01/01 07:51:21;;;;;;;;;;;;;;;2.93;100.00;95945.47;5064399;28;19966;-77
2024/01/01 07:53:48;;;;;;;;;;;;;;;2.93;100.00;95953.25;5067885;28;19978;-69
2024/01/01 07:56:14;;;;;;;;;;;;;;;2.94;100.00;95956.63;5068274;28;19953;-76
2024/01/01 07:58:40;;;;;;;;;;;;;;;2.95;100.00;95953.88;5068099;28;19957;-77
2024/01/01 08:01:06;;;;;;;;;;;;;;;2.95;100.00;95951.28;5067943;28;19955;-77
2024/01/01 08:03:32;;;;;;;;;;;;;;;2.95;100.00;95951.28;5067784;28;19964;-77
2024/01/01 08:05:58;;;;;;;;;;;;;;;2.95;100.00;95950.47;5067878;28;20230;-77
2024/01/01 08:08:24;;;;;;;;;;;;;;;2.96;100.00;95958.09;5068023;28;19973;-77
2024/01/01 08:10:50;;;;;;;;;;;;;;;2.97;100.00;95956.28;5068170;28;19961;-77
2024/01/01 08:13:16;;;;;;;;;;;;;;;2.97;100.00;95971.81;5068052;28;20256;-76
2024/01/01 08:15:41;;;;;;;;;;;;;;;2.99;100.00;95975.84;5068027;28;19954;-73
2024/01/01 08:18:07;;;;;;;;;;;;;;;3.09;100.00;95970.38;5067918;28;19958;-73
2024/01/01 08:20:33;;;;;;;;;;;;;;;3.24;100.00;95978.09;5067827;28;19998;-73
2024/01/01 08:22:59;;;;;;;;;;;;;;;3.47;100.00;95967.56;5067193;28;20140;-73
2024/01/01 08:25:25;;;;;;;;;;;;;;;3.70;100.00;95972.56;5067988;28;19964;-73
2024/01/01 08:27:51;;;;;;;;;;;;;;;3.95;100.00;95965.19;5067976;28;19949;-73
2024/01/01 08:30:17;;;;;;;;;;;;;;;4.15;100.00;95965.34;5067370;28;20207;-72
2024/01/01 08:32:43;;;;;;;;;;;;;;;4.26;100.00;95961.41;5067189;28;19983;-76
2024/01/01 08:35:09;;;;;;;;;;;;;;;4.31;100.00;95953.88;5067079;28;19985;-77
2024/01/01 08:37:34;;;;;;;;;;;;;;;4.30;100.00;95960.03;5067314;28;19954;-78
2024/01/01 08:40:00;;;;;;;;;;;;;;;4.29;100.00;95955.84;5067458;28;19979;-78
2024/01/01 08:42:26;;;;;;;;;;;;;;;4.37;100.00;95952.31;5067199;28;20296;-78
2024/01/01 08:44:52;;;;;;;;;;;;;;;4.42;100.00;95945.53;5067330;28;20184;-78
2024/01/01 08:47:18;;;;;;;;;;;;;;;4.46;100.00;95946.75;5067350;28;20018;-78
2024/01/01 08:49:44;;;;;;;;;;;;;;;4.47;100.00;95952.75;5067358;28;19958;-72
2024/01/01 08:52:10;;;;;;;;;;;;;;;4.49;100.00;95945.56;5067327;28;19957;-69
2024/01/01 08:54:36;;;;;;;;;;;;;;;4.60;100.00;95946.81;5067278;28;19945;-69
2024/01/01 08:57:03;;;;;;;;;;;;;;;4.74;100.00;95950.28;5067467;28;19960;-68
2024/01/01 08:59:29;;;;;;;;;;;;;;;4.90;100.00;95955.16;5067168;28;20112;-69
2024/01/01 09:01:55;;;;;;;;;;;;;;;5.01;100.00;95948.59;5048877;28;19964;-68
2024/01/01 09:04:21;;;;;;;;;;;;;;;5.11;100.00;95943.03;5066383;28;20259;-69
2024/01/01 09:06:46;;;;;;;;;;;;;;;5.22;100.00;95951.06;5066786;28;19964;-74
2024/01/01 09:09:12;;;;;;;;;;;;;;;5.27;100.00;95950.47;5066742;28;19966;-78
2024/01/01 09:11:38;;;;;;;;;;;;;;;5.28;100.00;95965.09;5048921;28;19992;-79
2024/01/01 09:14:04;;;;;;;;;;;;;;;5.19;100.00;95961.06;5066629;28;19958;-79
2024/01/01 09:16:31;;;;;;;;;;;;;;;5.13;100.00;95974.84;5066812;28;19971;-78
2024/01/01 09:18:59;;;;;;;;;;;;;;;5.20;100.00;95978.25;5066856;28;19957;-78
2024/01/01 09:21:26;;;;;;;;;;;;;;;5.21;100.00;95985.06;5048738;28;20267;-78
2024/01/01 09:24:00;;;;;;;;;;;;;;;5.27;100.00;95971.25;5066139;28;19962;-78
2024/01/01 09:26:27;;;;;;;;;;;;;;;5.34;100.00;95971.31;5066289;28;19967;-70
2024/01/01 09:28:53;;;;;;;;;;;;;;;5.42;100.00;95981.53;5066626;28;19962;-72
2024/01/01 09:31:19;;;;;;;;;;;;;;;5.43;100.00;95976.09;5066274;28;19960;-73
2024/01/01 09:33:45;;;;;;;;;;;;;;;5.47;100.00;95989.53;5066247;28;19959;-72
2024/01/01 09:36:14;;;;;;;;;;;;;;;5.40;100.00;95981.72;5066227;28;19956;-72
2024/01/01 09:38:41;;;;;;;;;;;;;;;5.35;100.00;95976.28;5066249;28;19951;-72
2024/01/01 09:41:13;;;;;;;;;;;;;;;5.35;100.00;95993.69;5066496;28;19955;-72
2024/01/01 09:43:39;;;;;;;;;;;;;;;5.34;100.00;95979.91;5065921;28;20150;-69
2024/01/01 09:46:05;;;;;;;;;;;;;;;5.38;100.00;95988.91;5066284;28;19966;-78
2024/01/01 09:48:31;;;;;;;;;;;;;;;5.51;100.00;95995.94;5065703;28;19937;-73
2024/01/01 09:50:57;;;;;;;;;;;;;;;5.60;100.00;95983.56;5066212;28;19955;-73
2024/01/01 09:53:23;;;;;;;;;;;;;;;5.71;100.00;95980.34;5066322;28;19961;-73
2024/01/01 09:55:50;;;;;;;;;;;;;;;5.86;100.00;95988.78;5065896;28;19957;-73
2024/01/01 09:58:16;;;;;;;;;;;;;;;6.06;100.00;95988.81;5065697;28;20250;-72
2024/01/01 10:00:41;;;;;;;;;;;;;;;6.18;100.00;95965.59;5065712;28;19955;-73
2024/01/01 10:03:10;;;;;;;;;;;;;;;6.30;100.00;95963.97;5065911;28;19963;-73
2024/01/01 10:05:40;;;;;;;;;;;;;;;6.43;100.00;95965.75;5065788;28;19964;-70
2024/01/01 10:08:10;;;;;;;;;;;;;;;6.56;100.00;95953.72;5065686;28;20121;-69
2024/01/01 10:10:37;;;;;;;;;;;;;;;6.58;100.00;95941.28;5065870;28;19953;-69
2024/01/01 10:13:06;;;;;;;;;;;;;;;6.64;100.00;95941.28;5065814;28;19972;-69
2024/01/01 10:15:32;;;;;;;;;;;;;;;6.66;100.00;95926.22;5064221;28;20246;-70
2024/01/01 10:18:14;;;;;;;;;;;;;;;6.62;100.00;95926.84;5065235;28;19954;-70
2024/01/01 10:20:42;;;;;;;;;;;;;;;6.68;100.00;95939.06;5065065;28;19947;-70
2024/01/01 10:23:20;;;;;;;;;;;;;;;6.78;100.00;95936.78;5065244;28;19976;-73
2024/01/01 10:26:00;;;;;;;;;;;;;;;6.97;100.00;95945.56;5064615;28;19963;-73
2024/01/01 10:28:28;;;;;;;;;;;;;;;7.06;100.00;95912.25;5065494;28;20231;-74
2024/01/01 10:30:53;;;;;;;;;;;;;;;7.10;100.00;95926.47;5065321;28;19947;-74
2024/01/01 10:33:20;;;;;;;;;;;;;;;7.17;100.00;95922.00;5065257;28;20256;-74
2024/01/01 10:35:45;;;;;;;;;;;;;;;7.16;100.00;95923.03;5064756;28;20233;-73
2024/01/01 10:38:12;;;;;;;;;;;;;;;7.11;100.00;95897.53;5065310;28;19955;-78
2024/01/01 10:40:39;;;;;;;;;;;;;;;7.08;100.00;95926.66;5064740;28;19950;-72
2024/01/01 10:43:07;;;;;;;;;;;;;;;7.03;100.00;95916.03;5065126;28;19970;-70
2024/01/01 10:45:33;;;;;;;;;;;;;;;6.95;100.00;95933.72;5064804;28;19957;-69
2024/01/01 10:48:00;;;;;;;;;;;;;;;6.89;100.00;95924.94;5064807;28;19951;-70
2024/01/01 10:50:35;;;;;;;;;;;;;;;6.84;100.00;95928.16;5064457;28;19963;-70
2024/01/01 10:53:24;;;;;;;;;;;;;;;6.85;100.00;95927.16;5064466;28;20236;-70
2024/01/01 10:55:50;;;;;;;;;;;;;;;6.98;100.00;95934.13;5064422;28;19971;-70
2024/01/01 10:58:23;;;;;;;;;;;;;;;7.16;100.00;95915.19;5064464;28;20003;-78
2024/01/01 11:01:09;;;;;;;;;;;;;;;7.33;100.00;95912.88;5064848;28;19957;-79
2024/01/01 11:03:35;;;;;;;;;;;;;;;7.43;100.00;95857.63;5063910;28;19962;-79
2024/01/01 11:06:20;;;;;;;;;;;;;;;7.55;100.00;95899.50;5064802;28;19959;-79
2024/01/01 11:08:46;;;;;;;;;;;;;;;7.62;100.00;95908.88;5064816;28;20109;-79
2024/01/01 11:11:32;;;;;;;;;;;;;;;7.67;100.00;95877.72;5064619;28;19968;-79
2024/01/01 11:13:59;;;;;;;;;;;;;;;7.66;100.00;95838.78;5064649;28;19956;-78
2024/01/01 11:16:26;;;;;;;;;;;;;;;7.58;100.00;95854.69;5064383;28;19942;-70
2024/01/01 11:18:52;;;;;;;;;;;;;;;7.51;100.00;95873.03;5064232;28;19960;-73
2024/01/01 11:21:28;;;;;;;;;;;;;;;7.44;100.00;95860.03;5064224;28;19957;-74
2024/01/01 11:23:54;;;;;;;;;;;;;;;7.34;100.00;95864.91;5064198;28;19968;-73
2024/01/01 11:26:23;;;;;;;;;;;;;;;7.31;100.00;95876.56;5063988;28;19961;-75
2024/01/01 11:28:49;;;;;;;;;;;;;;;7.24;100.00;95862.75;5064256;28;19953;-73
2024/01/01 11:31:15;;;;;;;;;;;;;;;7.21;100.00;95883.28;5064266;28;19963;-73
2024/01/01 11:33:40;;;;;;;;;;;;;;;7.17;100.00;95895.13;5064281;28;19961;-73
2024/01/01 11:36:09;;;;;;;;;;;;;;;7.09;100.00;95886.53;5064537;28;19958;-70
2024/01/01 11:38:35;;;;;;;;;;;;;;;7.05;100.00;95914.03;5064343;28;19980;-83
2024/01/01 11:41:01;;;;;;;;;;;;;;;7.05;100.00;95882.75;5029225;28;19962;-81
2024/01/01 11:43:27;;;;;;;;;;;;;;;7.10;100.00;95909.00;5064409;28;19978;-82
2024/01/01 11:45:56;;;;;;;;;;;;;;;7.13;100.00;95889.53;5064358;28;19990;-83
2024/01/01 11:48:22;;;;;;;;;;;;;;;7.14;100.00;95911.16;5063870;28;20251;-83
2024/01/01 11:50:49;;;;;;;;;;;;;;;7.10;100.00;95911.59;5063874;28;20050;-83
2024/01/01 11:53:15;;;;;;;;;;;;;;;7.04;100.00;95881.16;5063950;28;20139;-73
2024/01/01 11:55:41;;;;;;;;;;;;;;;6.97;100.00;95903.03;5063613;28;19959;-80
2024/01/01 11:58:07;;;;;;;;;;;;;;;6.82;100.00;95888.47;5063929;28;19965;-80
2024/01/01 12:00:33;;;;;;;;;;;;;;;6.69;100.00;95941.44;5063960;28;19963;-80
2024/01/01 12:02:59;;;;;;;;;;;;;;;6.63;100.00;95965.69;5064051;28;20262;-80
2024/01/01 12:05:25;;;;;;;;;;;;;;;6.56;100.00;95962.34;5063545;28;20230;-80
2024/01/01 12:07:51;;;;;;;;;;;;;;;6.49;100.00;95977.97;5064007;28;19953;-80
2024/01/01 12:10:18;;;;;;;;;;;;;;;6.46;100.00;95991.38;5064038;28;19959;-73
2024/01/01 12:12:44;;;;;;;;;;;;;;;6.48;100.00;96004.22;5064144;28;20253;-70
2024/01/01 12:15:14;;;;;;;;;;;;;;;6.45;100.00;95973.38;5063628;28;19956;-82
2024/01/01 12:17:47;;;;;;;;;;;;;;;6.42;100.00;95989.41;5063987;28;19983;-83
2024/01/01 12:20:13;;;;;;;;;;;;;;;6.41;100.00;95987.81;5063632;28;19957;-83
2024/01/01 12:22:39;;;;;;;;;;;;;;;6.44;100.00;95990.78;5063615;28;19959;-84
2024/01/01 12:25:06;;;;;;;;;;;;;;;6.45;100.00;95983.81;5063891;28;19956;-83
2024/01/01 12:27:32;;;;;;;;;;;;;;;6.46;100.00;95965.34;5063732;28;19956;-84
2024/01/01 12:29:59;;;;;;;;;;;;;;;6.50;100.00;95957.94;5064000;28;19964;-70
2024/01/01 12:32:25;;;;;;;;;;;;;;;6.54;100.00;95940.88;5063789;28;19983;-70
2024/01/01 12:34:51;;;;;;;;;;;;;;;6.60;100.00;95952.31;5063840;28;20212;-69
2024/01/01 12:37:17;;;;;;;;;;;;;;;6.63;100.00;95923.22;5063830;28;19969;-69
2024/01/01 12:39:43;;;;;;;;;;;;;;;6.61;100.00;95889.56;5067051;28;19962;-69
2024/01/01 12:42:09;;;;;;;;;;;;;;;6.60;100.00;95914.03;5067015;28;19995;-69
2024/01/01 12:44:36;;;;;;;;;;;;;;;6.63;100.00;95903.19;5066922;28;20039;-69